Time;durP1;ratioP1;P1;durP2;ratioP2;P2;SDS_P1;SDS_P2;PMS_P1;PMS_P2;Temp;Humidity;BMP_temperature;BMP_pressure;BME280_temperature;BME280_humidity;BME280_pressure;Samples;Min_cycle;Max_cycle;Signal;HPM_P1;HPM_P2
2024/01/18 00:01:59;;;;;;;0.40;0.40;;;;;;;;;;4997050;28;20042;-68
2024/01/18 00:04:24;;;;;;;0.50;0.50;;;;;;;;;;4995504;28;20605;-68
2024/01/18 00:06:51;;;;;;;0.50;0.50;;;;;;;;;;4997010;28;20045;-69
2024/01/18 00:09:16;;;;;;;2.30;0.45;;;;;;;;;;4994683;28;20419;-69
2024/01/18 00:11:42;;;;;;;0.75;0.50;;;;;;;;;;4995991;28;20503;-69
2024/01/18 00:14:07;;;;;;;0.25;0.25;;;;;;;;;;4995585;28;20049;-69
2024/01/18 00:16:34;;;;;;;0.65;0.50;;;;;;;;;;4995803;28;20072;-69
2024/01/18 00:19:00;;;;;;;0.47;0.47;;;;;;;;;;4996520;28;20155;-69
2024/01/18 00:21:25;;;;;;;0.20;0.20;;;;;;;;;;4994812;28;21070;-70
2024/01/18 00:23:50;;;;;;;0.30;0.30;;;;;;;;;;4980976;28;20046;-70
2024/01/18 00:26:16;;;;;;;0.30;0.30;;;;;;;;;;4995168;28;20042;-69
2024/01/18 00:28:41;;;;;;;0.50;0.50;;;;;;;;;;4996822;28;20049;-70
2024/01/18 00:31:06;;;;;;;0.30;0.30;;;;;;;;;;4995233;28;20103;-70
2024/01/18 00:33:32;;;;;;;0.57;0.57;;;;;;;;;;4995390;28;20049;-70
2024/01/18 00:35:57;;;;;;;0.30;0.30;;;;;;;;;;4995415;28;20791;-70
2024/01/18 00:38:22;;;;;;;0.32;0.32;;;;;;;;;;4994564;28;20069;-70
2024/01/18 00:40:48;;;;;;;0.43;0.43;;;;;;;;;;4996493;28;20049;-69
2024/01/18 00:43:13;;;;;;;0.35;0.30;;;;;;;;;;4994895;28;20049;-70
2024/01/18 00:45:39;;;;;;;1.00;0.60;;;;;;;;;;4995859;28;20041;-70
2024/01/18 00:48:04;;;;;;;0.40;0.40;;;;;;;;;;4996422;28;20038;-68
2024/01/18 00:50:30;;;;;;;0.30;0.30;;;;;;;;;;4994893;28;20502;-69
2024/01/18 00:52:55;;;;;;;0.90;0.65;;;;;;;;;;4996076;28;20037;-68
2024/01/18 00:55:20;;;;;;;0.52;0.52;;;;;;;;;;4994723;28;20050;-68
2024/01/18 00:57:46;;;;;;;0.30;0.30;;;;;;;;;;4981272;28;20136;-68
2024/01/18 01:00:13;;;;;;;0.35;0.35;;;;;;;;;;4995333;28;20134;-68
2024/01/18 01:02:38;;;;;;;0.50;0.50;;;;;;;;;;4996073;28;20119;-71
2024/01/18 01:05:04;;;;;;;0.47;0.47;;;;;;;;;;4980853;28;20045;-70
2024/01/18 01:07:29;;;;;;;0.40;0.32;;;;;;;;;;4999505;28;20061;-71
2024/01/18 01:09:55;;;;;;;0.40;0.40;;;;;;;;;;5000172;28;20064;-70
2024/01/18 01:12:20;;;;;;;0.30;0.30;;;;;;;;;;4998521;28;20157;-71
2024/01/18 01:14:45;;;;;;;1.08;0.43;;;;;;;;;;4983504;28;20049;-70
2024/01/18 01:17:11;;;;;;;0.60;0.60;;;;;;;;;;4997029;28;20053;-70
2024/01/18 01:19:36;;;;;;;0.40;0.40;;;;;;;;;;4998579;28;20038;-70
2024/01/18 01:22:02;;;;;;;0.95;0.30;;;;;;;;;;4998168;28;20164;-70
2024/01/18 01:24:27;;;;;;;0.35;0.25;;;;;;;;;;4996209;28;20053;-70
2024/01/18 01:26:52;;;;;;;0.52;0.52;;;;;;;;;;4998369;28;20049;-70
2024/01/18 01:29:18;;;;;;;0.20;0.20;;;;;;;;;;4998753;28;20046;-70
2024/01/18 01:31:43;;;;;;;0.40;0.40;;;;;;;;;;4999374;28;20056;-70
2024/01/18 01:34:09;;;;;;;0.20;0.20;;;;;;;;;;4999752;28;20049;-70
2024/01/18 01:36:34;;;;;;;0.70;0.28;;;;;;;;;;4981576;28;20585;-70
2024/01/18 01:38:59;;;;;;;1.42;0.40;;;;;;;;;;4998963;28;20061;-70
2024/01/18 01:41:25;;;;;;;0.30;0.30;;;;;;;;;;4982913;28;20088;-69
2024/01/18 01:44:00;;;;;;;0.30;0.30;;;;;;;;;;4999407;28;20077;-70
2024/01/18 01:46:26;;;;;;;0.35;0.35;;;;;;;;;;4997379;28;20049;-70
2024/01/18 01:49:02;;;;;;;0.40;0.40;;;;;;;;;;4998684;28;20046;-67
2024/01/18 01:51:36;;;;;;;0.20;0.20;;;;;;;;;;4997304;28;20490;-70
2024/01/18 01:54:04;;;;;;;0.30;0.30;;;;;;;;;;4999209;28;20069;-68
2024/01/18 01:56:31;;;;;;;0.32;0.30;;;;;;;;;;4997841;28;20053;-68
2024/01/18 01:58:56;;;;;;;0.40;0.40;;;;;;;;;;4999075;28;20129;-67
2024/01/18 02:01:22;;;;;;;0.40;0.40;;;;;;;;;;4997670;28;21116;-67
2024/01/18 02:03:48;;;;;;;0.30;0.30;;;;;;;;;;4999158;28;20064;-67
2024/01/18 02:06:16;;;;;;;0.20;0.20;;;;;;;;;;4998685;28;20045;-74
2024/01/18 02:08:42;;;;;;;0.22;0.22;;;;;;;;;;4999077;28;20045;-70
2024/01/18 02:11:08;;;;;;;0.30;0.30;;;;;;;;;;4998246;28;20085;-67
2024/01/18 02:13:34;;;;;;;0.50;0.28;;;;;;;;;;4998317;28;20176;-68
2024/01/18 02:15:59;;;;;;;0.22;0.22;;;;;;;;;;4981833;28;20057;-67
2024/01/18 02:18:25;;;;;;;0.22;0.22;;;;;;;;;;4996902;28;20042;-68
2024/01/18 02:20:50;;;;;;;0.20;0.20;;;;;;;;;;4998421;28;20736;-68
2024/01/18 02:23:16;;;;;;;0.70;0.35;;;;;;;;;;4982075;28;20065;-68
2024/01/18 02:25:42;;;;;;;0.30;0.30;;;;;;;;;;4998270;28;20042;-67
2024/01/18 02:28:07;;;;;;;0.22;0.22;;;;;;;;;;4998671;28;20549;-67
2024/01/18 02:30:33;;;;;;;0.20;0.20;;;;;;;;;;4980905;28;20096;-68
2024/01/18 02:32:58;;;;;;;0.30;0.30;;;;;;;;;;4998207;28;20099;-68
2024/01/18 02:35:24;;;;;;;0.22;0.22;;;;;;;;;;4979604;28;20048;-68
2024/01/18 02:37:49;;;;;;;2.85;2.22;;;;;;;;;;4997974;28;20054;-68
2024/01/18 02:40:15;;;;;;;0.30;0.30;;;;;;;;;;4997732;28;20459;-68
2024/01/18 02:42:40;;;;;;;0.30;0.30;;;;;;;;;;4997197;28;20065;-69
2024/01/18 02:45:06;;;;;;;0.40;0.40;;;;;;;;;;4997636;28;20046;-68
2024/01/18 02:47:33;;;;;;;0.30;0.30;;;;;;;;;;4997713;28;20053;-68
2024/01/18 02:49:59;;;;;;;0.20;0.20;;;;;;;;;;4998147;28;20052;-67
2024/01/18 02:52:24;;;;;;;0.30;0.30;;;;;;;;;;4981113;28;20050;-67
2024/01/18 02:54:50;;;;;;;0.40;0.40;;;;;;;;;;4997984;28;20050;-67
2024/01/18 02:57:15;;;;;;;3.28;0.30;;;;;;;;;;4997276;28;20125;-67
2024/01/18 02:59:40;;;;;;;0.22;0.22;;;;;;;;;;4997299;28;20072;-67
2024/01/18 03:02:06;;;;;;;0.35;0.35;;;;;;;;;;4997164;28;20152;-68
2024/01/18 03:04:31;;;;;;;0.50;0.40;;;;;;;;;;4979498;28;20081;-67
2024/01/18 03:06:57;;;;;;;0.30;0.30;;;;;;;;;;4996535;28;20046;-67
2024/01/18 03:09:23;;;;;;;0.47;0.47;;;;;;;;;;4996773;28;20057;-67
2024/01/18 03:11:48;;;;;;;0.30;0.30;;;;;;;;;;4997671;28;20041;-67
2024/01/18 03:14:13;;;;;;;0.30;0.30;;;;;;;;;;4997242;28;20414;-72
2024/01/18 03:16:42;;;;;;;0.30;0.30;;;;;;;;;;4979267;28;20165;-68
2024/01/18 03:19:10;;;;;;;0.40;0.40;;;;;;;;;;4997105;28;20049;-67
2024/01/18 03:21:36;;;;;;;0.43;0.43;;;;;;;;;;4981519;28;20112;-68
2024/01/18 03:24:02;;;;;;;0.50;0.50;;;;;;;;;;4997535;28;20108;-67
2024/01/18 03:26:27;;;;;;;0.40;0.40;;;;;;;;;;4996263;28;20092;-67
2024/01/18 03:28:52;;;;;;;0.75;0.68;;;;;;;;;;4997075;28;20223;-67
2024/01/18 03:31:18;;;;;;;2.88;0.57;;;;;;;;;;4996902;28;20042;-67
2024/01/18 03:33:43;;;;;;;0.40;0.40;;;;;;;;;;4996808;28;20054;-67
2024/01/18 03:36:10;;;;;;;0.63;0.57;;;;;;;;;;4997193;28;20050;-68
2024/01/18 03:38:35;;;;;;;0.60;0.60;;;;;;;;;;4995818;28;20053;-67
2024/01/18 03:41:01;;;;;;;0.52;0.52;;;;;;;;;;4996513;28;20049;-68
2024/01/18 03:43:26;;;;;;;0.40;0.40;;;;;;;;;;4996492;28;20048;-68
2024/01/18 03:45:52;;;;;;;2.15;0.60;;;;;;;;;;4996461;28;20121;-67
2024/01/18 03:48:17;;;;;;;0.40;0.40;;;;;;;;;;4995951;28;20112;-68
2024/01/18 03:50:42;;;;;;;0.50;0.50;;;;;;;;;;4995590;28;20077;-67
2024/01/18 03:53:08;;;;;;;0.98;0.40;;;;;;;;;;4996798;28;20045;-68
2024/01/18 03:55:33;;;;;;;0.68;0.47;;;;;;;;;;4996206;28;20579;-67
2024/01/18 03:57:59;;;;;;;0.50;0.50;;;;;;;;;;4996980;28;20041;-67
2024/01/18 04:00:24;;;;;;;0.98;0.70;;;;;;;;;;4979740;28;20840;-68
2024/01/18 04:02:49;;;;;;;0.57;0.45;;;;;;;;;;4996097;28;20049;-68
2024/01/18 04:05:15;;;;;;;0.63;0.50;;;;;;;;;;4997082;28;20042;-67
2024/01/18 04:07:40;;;;;;;0.40;0.40;;;;;;;;;;4996220;28;20077;-67
2024/01/18 04:10:07;;;;;;;0.40;0.40;;;;;;;;;;4996827;28;20077;-67
2024/01/18 04:12:34;;;;;;;0.60;0.60;;;;;;;;;;4994225;28;20053;-67
2024/01/18 04:15:00;;;;;;;0.60;0.60;;;;;;;;;;4996270;28;20050;-67
2024/01/18 04:17:25;;;;;;;0.60;0.60;;;;;;;;;;4996017;28;20049;-67
2024/01/18 04:19:51;;;;;;;0.50;0.50;;;;;;;;;;4995792;28;21316;-67
2024/01/18 04:22:16;;;;;;;0.57;0.57;;;;;;;;;;4995363;28;20050;-67
2024/01/18 04:24:42;;;;;;;0.95;0.95;;;;;;;;;;4995759;28;20046;-67
2024/01/18 04:27:07;;;;;;;1.17;1.08;;;;;;;;;;4996676;28;20601;-68
2024/01/18 04:29:34;;;;;;;0.90;0.90;;;;;;;;;;4995712;28;20079;-67
2024/01/18 04:31:59;;;;;;;2.25;1.00;;;;;;;;;;4995725;28;20234;-68
2024/01/18 04:34:25;;;;;;;3.28;1.30;;;;;;;;;;4977214;28;20065;-67
2024/01/18 04:36:50;;;;;;;1.08;0.98;;;;;;;;;;4995679;28;20047;-67
2024/01/18 04:39:16;;;;;;;0.80;0.80;;;;;;;;;;4980757;28;20557;-67
2024/01/18 04:41:41;;;;;;;0.90;0.90;;;;;;;;;;5002050;28;20099;-67
2024/01/18 04:44:06;;;;;;;1.00;0.90;;;;;;;;;;4998382;28;20053;-67
2024/01/18 04:46:32;;;;;;;1.65;1.30;;;;;;;;;;5000312;28;20040;-67
2024/01/18 04:48:58;;;;;;;1.35;1.10;;;;;;;;;;5002708;28;20514;-67
2024/01/18 04:51:23;;;;;;;1.00;1.00;;;;;;;;;;5002912;28;20049;-67
2024/01/18 04:53:48;;;;;;;1.40;1.30;;;;;;;;;;4968194;28;20054;-67
2024/01/18 04:56:14;;;;;;;1.27;1.20;;;;;;;;;;5001796;28;20042;-67
2024/01/18 04:58:40;;;;;;;1.50;1.40;;;;;;;;;;5000110;28;20060;-67
2024/01/18 05:01:06;;;;;;;1.55;1.45;;;;;;;;;;4985387;28;20050;-67
2024/01/18 05:03:31;;;;;;;1.88;1.50;;;;;;;;;;4984883;28;20038;-67
2024/01/18 05:05:57;;;;;;;1.52;1.42;;;;;;;;;;5002644;28;20038;-67
2024/01/18 05:08:23;;;;;;;1.92;1.55;;;;;;;;;;5000543;28;20038;-68
2024/01/18 05:10:49;;;;;;;3.13;1.35;;;;;;;;;;5001735;28;20977;-67
2024/01/18 05:13:14;;;;;;;4.78;1.70;;;;;;;;;;5002564;28;20041;-67
2024/01/18 05:15:40;;;;;;;1.70;1.50;;;;;;;;;;5000116;28;20586;-67
2024/01/18 05:18:06;;;;;;;1.98;1.77;;;;;;;;;;5001945;28;20100;-67
2024/01/18 05:20:33;;;;;;;2.00;1.60;;;;;;;;;;5000188;28;20132;-66
2024/01/18 05:22:58;;;;;;;6.82;1.80;;;;;;;;;;5002658;28;20076;-67
2024/01/18 05:25:24;;;;;;;1.88;1.23;;;;;;;;;;5002144;28;20125;-67
2024/01/18 05:27:49;;;;;;;1.52;1.42;;;;;;;;;;5001404;28;20061;-67
2024/01/18 05:30:15;;;;;;;12.15;2.00;;;;;;;;;;4999602;28;20304;-67
2024/01/18 05:32:40;;;;;;;2.35;1.60;;;;;;;;;;4999070;28;20049;-67
2024/01/18 05:35:06;;;;;;;1.67;1.58;;;;;;;;;;5002012;28;20136;-67
2024/01/18 05:37:32;;;;;;;4.20;1.58;;;;;;;;;;5001459;28;20045;-67
2024/01/18 05:39:57;;;;;;;3.53;1.85;;;;;;;;;;5000202;28;20073;-66
2024/01/18 05:42:23;;;;;;;2.10;1.90;;;;;;;;;;4996910;28;20402;-66
2024/01/18 05:44:50;;;;;;;2.38;2.17;;;;;;;;;;4968330;28;20128;-66
2024/01/18 05:47:15;;;;;;;2.20;2.00;;;;;;;;;;5001185;28;20096;-66
2024/01/18 05:49:40;;;;;;;2.10;1.95;;;;;;;;;;5000864;28;20053;-67
2024/01/18 05:52:07;;;;;;;2.85;1.98;;;;;;;;;;4997265;28;20046;-67
2024/01/18 05:54:35;;;;;;;2.88;2.38;;;;;;;;;;4998023;28;20038;-67
2024/01/18 05:57:01;;;;;;;4.63;2.60;;;;;;;;;;4998194;28;20058;-67
2024/01/18 05:59:30;;;;;;;6.05;3.08;;;;;;;;;;4998245;28;20042;-67
2024/01/18 06:01:56;;;;;;;10.32;4.38;;;;;;;;;;4979838;28;20053;-67
2024/01/18 06:04:21;;;;;;;7.50;4.65;;;;;;;;;;4995494;28;20046;-68
2024/01/18 06:06:47;;;;;;;6.78;4.63;;;;;;;;;;4997095;28;20691;-66
2024/01/18 06:09:16;;;;;;;9.93;4.70;;;;;;;;;;4997953;28;20057;-67
2024/01/18 06:11:45;;;;;;;5.35;3.95;;;;;;;;;;4996504;28;20042;-67
2024/01/18 06:14:11;;;;;;;7.32;4.28;;;;;;;;;;4995649;28;20060;-65
2024/01/18 06:16:38;;;;;;;201.02;9.13;;;;;;;;;;4995606;28;20053;-67
2024/01/18 06:19:03;;;;;;;209.90;8.48;;;;;;;;;;4994948;28;20076;-66
2024/01/18 06:21:29;;;;;;;183.32;8.18;;;;;;;;;;4997229;28;20069;-67
2024/01/18 06:23:54;;;;;;;32.00;4.65;;;;;;;;;;4997092;28;20056;-66
2024/01/18 06:26:20;;;;;;;163.68;6.57;;;;;;;;;;4996146;28;20038;-66
2024/01/18 06:28:45;;;;;;;93.45;6.20;;;;;;;;;;4995953;28;20077;-67
2024/01/18 06:31:11;;;;;;;135.25;7.30;;;;;;;;;;4997830;28;20509;-66
2024/01/18 06:33:36;;;;;;;15.02;4.80;;;;;;;;;;4981453;28;20057;-65
2024/01/18 06:36:02;;;;;;;25.20;5.07;;;;;;;;;;4996935;28;20042;-67
2024/01/18 06:38:28;;;;;;;25.38;5.03;;;;;;;;;;4996550;28;20629;-66
2024/01/18 06:40:58;;;;;;;7.45;4.95;;;;;;;;;;4997514;28;20041;-66
2024/01/18 06:43:25;;;;;;;6.43;3.67;;;;;;;;;;4980918;28;20582;-66
2024/01/18 06:45:54;;;;;;;38.22;4.95;;;;;;;;;;4994916;28;20042;-66
2024/01/18 06:48:20;;;;;;;6.28;3.45;;;;;;;;;;4995621;28;20535;-65
2024/01/18 06:50:46;;;;;;;3.83;3.03;;;;;;;;;;4997577;28;20053;-66
2024/01/18 06:53:11;;;;;;;3.63;3.25;;;;;;;;;;4997803;28;20042;-67
2024/01/18 06:55:37;;;;;;;4.70;3.65;;;;;;;;;;4979440;28;20049;-65
2024/01/18 06:58:03;;;;;;;3.97;3.58;;;;;;;;;;4997136;28;20125;-66
2024/01/18 07:00:29;;;;;;;4.55;3.75;;;;;;;;;;4997132;28;20042;-66
2024/01/18 07:02:54;;;;;;;4.95;3.47;;;;;;;;;;4997238;28;20084;-67
2024/01/18 07:05:20;;;;;;;3.85;3.17;;;;;;;;;;4998391;28;20506;-67
2024/01/18 07:07:46;;;;;;;3.85;3.00;;;;;;;;;;4997538;28;21029;-65
2024/01/18 07:10:11;;;;;;;5.82;3.67;;;;;;;;;;4996940;28;20667;-66
2024/01/18 07:12:37;;;;;;;4.93;3.47;;;;;;;;;;4997394;28;20057;-66
2024/01/18 07:15:03;;;;;;;4.20;3.13;;;;;;;;;;4996891;28;20733;-67
2024/01/18 07:17:29;;;;;;;3.65;3.08;;;;;;;;;;4997559;28;20384;-66
2024/01/18 07:19:58;;;;;;;4.78;3.80;;;;;;;;;;4995048;28;20052;-66
2024/01/18 07:22:25;;;;;;;4.55;2.88;;;;;;;;;;4996779;28;20042;-66
2024/01/18 07:24:51;;;;;;;3.53;3.22;;;;;;;;;;4996299;28;20074;-67
2024/01/18 07:27:17;;;;;;;4.90;3.67;;;;;;;;;;4965708;28;20652;-66
2024/01/18 07:29:42;;;;;;;4.40;3.53;;;;;;;;;;4996432;28;20049;-67
2024/01/18 07:32:08;;;;;;;5.72;3.70;;;;;;;;;;4995778;28;20930;-67
2024/01/18 07:34:34;;;;;;;5.10;3.60;;;;;;;;;;4996653;28;20048;-66
2024/01/18 07:36:59;;;;;;;6.53;4.40;;;;;;;;;;4995115;28;20505;-66
2024/01/18 07:39:25;;;;;;;8.98;5.28;;;;;;;;;;4997024;28;20060;-66
2024/01/18 07:41:50;;;;;;;7.85;4.65;;;;;;;;;;4994795;28;20049;-66
2024/01/18 07:44:15;;;;;;;7.40;4.07;;;;;;;;;;4995862;28;20052;-66
2024/01/18 07:46:41;;;;;;;6.07;4.03;;;;;;;;;;4995591;28;20060;-66
2024/01/18 07:49:06;;;;;;;5.70;3.20;;;;;;;;;;4997017;28;20060;-66
2024/01/18 07:51:32;;;;;;;4.25;3.00;;;;;;;;;;4997342;28;20038;-65
2024/01/18 07:53:57;;;;;;;3.50;2.85;;;;;;;;;;4995379;28;20049;-67
2024/01/18 07:56:22;;;;;;;5.32;3.75;;;;;;;;;;4996648;28;20095;-65
2024/01/18 07:58:48;;;;;;;4.72;4.03;;;;;;;;;;4996179;28;20057;-66
2024/01/18 08:01:18;;;;;;;5.95;3.00;;;;;;;;;;4997082;28;20041;-65
2024/01/18 08:03:43;;;;;;;4.47;3.75;;;;;;;;;;4995713;28;20050;-65
2024/01/18 08:06:11;;;;;;;5.18;3.50;;;;;;;;;;4997043;28;20048;-68
2024/01/18 08:08:37;;;;;;;4.15;3.35;;;;;;;;;;4996045;28;20870;-66
2024/01/18 08:11:02;;;;;;;4.93;3.47;;;;;;;;;;4995824;28;20069;-66
2024/01/18 08:13:28;;;;;;;3.75;3.08;;;;;;;;;;4996789;28;20073;-66
2024/01/18 08:15:56;;;;;;;5.40;3.78;;;;;;;;;;4994374;28;20049;-67
2024/01/18 08:18:23;;;;;;;4.22;3.55;;;;;;;;;;4996254;28;20045;-67
2024/01/18 08:20:50;;;;;;;3.45;3.08;;;;;;;;;;4996162;28;20133;-66
2024/01/18 08:23:17;;;;;;;4.40;3.35;;;;;;;;;;4996827;28;20048;-66
2024/01/18 08:25:43;;;;;;;3.95;3.22;;;;;;;;;;4995814;28;20046;-65
2024/01/18 08:28:10;;;;;;;6.75;3.45;;;;;;;;;;4996673;28;20049;-66
2024/01/18 08:30:36;;;;;;;9.98;4.95;;;;;;;;;;4995880;28;20050;-66
2024/01/18 08:33:01;;;;;;;6.35;4.07;;;;;;;;;;4996095;28;20042;-66
2024/01/18 08:35:27;;;;;;;5.22;3.85;;;;;;;;;;4996285;28;20042;-66
2024/01/18 08:37:53;;;;;;;5.03;4.10;;;;;;;;;;4995238;28;20046;-66
2024/01/18 08:40:18;;;;;;;6.38;3.70;;;;;;;;;;4978160;28;20049;-66
2024/01/18 08:42:45;;;;;;;4.80;3.40;;;;;;;;;;4995700;28;20574;-65
2024/01/18 08:45:11;;;;;;;6.82;3.47;;;;;;;;;;4996231;28;20042;-66
2024/01/18 08:47:36;;;;;;;5.30;4.05;;;;;;;;;;4979898;28;20045;-66
2024/01/18 08:50:03;;;;;;;5.22;4.00;;;;;;;;;;4980066;28;20076;-66
2024/01/18 08:52:28;;;;;;;4.45;3.95;;;;;;;;;;4980582;28;20069;-66
2024/01/18 08:54:54;;;;;;;6.28;4.13;;;;;;;;;;4995263;28;20716;-66
2024/01/18 08:57:19;;;;;;;5.55;4.10;;;;;;;;;;4996207;28;21022;-66
2024/01/18 08:59:45;;;;;;;8.25;4.10;;;;;;;;;;4995725;28;20042;-66
2024/01/18 09:02:10;;;;;;;4.55;3.85;;;;;;;;;;4996106;28;20049;-67
2024/01/18 09:04:35;;;;;;;5.75;4.03;;;;;;;;;;4995965;28;20053;-66
2024/01/18 09:07:01;;;;;;;5.43;4.20;;;;;;;;;;4995927;28;20061;-67
2024/01/18 09:09:26;;;;;;;7.57;5.25;;;;;;;;;;4979641;28;20788;-67
2024/01/18 09:11:52;;;;;;;9.07;5.45;;;;;;;;;;4995405;28;20632;-66
2024/01/18 09:14:18;;;;;;;5.82;4.60;;;;;;;;;;4996347;28;20046;-67
2024/01/18 09:16:43;;;;;;;6.43;4.60;;;;;;;;;;4995480;28;20053;-66
2024/01/18 09:19:09;;;;;;;5.82;4.38;;;;;;;;;;4995696;28;20037;-67
2024/01/18 09:21:44;;;;;;;6.13;4.75;;;;;;;;;;4995620;28;20107;-66
2024/01/18 09:24:10;;;;;;;6.63;4.28;;;;;;;;;;4995253;28;20487;-66
2024/01/18 09:26:36;;;;;;;5.43;3.92;;;;;;;;;;4996849;28;20108;-66
2024/01/18 09:29:02;;;;;;;5.30;4.18;;;;;;;;;;4998821;28;20507;-66
2024/01/18 09:31:28;;;;;;;6.05;3.88;;;;;;;;;;4999362;28;20053;-66
2024/01/18 09:33:53;;;;;;;4.72;4.07;;;;;;;;;;4999185;28;20535;-66
2024/01/18 09:36:19;;;;;;;4.80;4.15;;;;;;;;;;4999126;28;20067;-66
2024/01/18 09:38:44;;;;;;;4.43;3.65;;;;;;;;;;4999423;28;20099;-66
2024/01/18 09:41:10;;;;;;;4.03;3.10;;;;;;;;;;4981483;28;20048;-66
2024/01/18 09:43:37;;;;;;;4.28;3.58;;;;;;;;;;4998814;28;20042;-66
2024/01/18 09:46:07;;;;;;;5.53;3.72;;;;;;;;;;4998806;28;20129;-66
2024/01/18 09:48:36;;;;;;;6.30;3.67;;;;;;;;;;4998858;28;20052;-66
2024/01/18 09:51:06;;;;;;;7.80;4.10;;;;;;;;;;4998614;28;20152;-66
2024/01/18 09:53:33;;;;;;;6.45;4.75;;;;;;;;;;4999071;28;20491;-66
2024/01/18 09:56:14;;;;;;;7.22;5.25;;;;;;;;;;4983352;28;20487;-66
2024/01/18 09:58:39;;;;;;;3.78;2.83;;;;;;;;;;4998922;28;20127;-66
2024/01/18 10:01:10;;;;;;;3.50;3.20;;;;;;;;;;4998301;28;20129;-66
2024/01/18 10:03:35;;;;;;;6.18;4.25;;;;;;;;;;4999297;28;20052;-66
2024/01/18 10:06:01;;;;;;;4.60;3.70;;;;;;;;;;4998115;28;20050;-66
2024/01/18 10:08:26;;;;;;;3.90;3.30;;;;;;;;;;4998681;28;20084;-65
2024/01/18 10:10:51;;;;;;;6.15;3.67;;;;;;;;;;4998972;28;20053;-67
2024/01/18 10:13:17;;;;;;;4.35;3.40;;;;;;;;;;4998829;28;20041;-66
2024/01/18 10:15:42;;;;;;;7.90;4.30;;;;;;;;;;4982258;28;20406;-67
2024/01/18 10:18:08;;;;;;;5.43;4.18;;;;;;;;;;4998197;28;20034;-66
2024/01/18 10:20:33;;;;;;;6.50;4.47;;;;;;;;;;4998726;28;20137;-67
2024/01/18 10:23:00;;;;;;;10.40;5.82;;;;;;;;;;4998063;28;20985;-66
2024/01/18 10:25:26;;;;;;;9.32;5.85;;;;;;;;;;4999358;28;20025;-67
2024/01/18 10:27:53;;;;;;;7.57;5.45;;;;;;;;;;4997609;28;20046;-67
2024/01/18 10:30:19;;;;;;;6.00;4.38;;;;;;;;;;4998121;28;20890;-66
2024/01/18 10:32:45;;;;;;;8.35;5.60;;;;;;;;;;4998594;28;20133;-67
2024/01/18 10:35:24;;;;;;;15.52;8.60;;;;;;;;;;4997976;28;20132;-66
2024/01/18 10:38:00;;;;;;;11.32;6.78;;;;;;;;;;4979491;28;20050;-66
2024/01/18 10:40:26;;;;;;;13.32;7.90;;;;;;;;;;4997631;28;20270;-66
2024/01/18 10:42:52;;;;;;;15.68;9.15;;;;;;;;;;4981062;28;20054;-66
2024/01/18 10:45:18;;;;;;;16.40;9.52;;;;;;;;;;4998567;28;20065;-67
2024/01/18 10:47:44;;;;;;;11.52;8.05;;;;;;;;;;4999331;28;20054;-65
2024/01/18 10:50:10;;;;;;;12.98;6.47;;;;;;;;;;4997409;28;20094;-66
2024/01/18 10:52:37;;;;;;;9.23;5.97;;;;;;;;;;4980513;28;20041;-67
2024/01/18 10:55:08;;;;;;;8.10;5.63;;;;;;;;;;4997526;28;20403;-66
2024/01/18 10:57:34;;;;;;;7.07;5.38;;;;;;;;;;4998138;28;20046;-66
2024/01/18 10:59:59;;;;;;;11.23;5.35;;;;;;;;;;4995928;28;20049;-66
2024/01/18 11:02:25;;;;;;;9.25;5.82;;;;;;;;;;4996493;28;20125;-65
2024/01/18 11:04:52;;;;;;;7.88;5.80;;;;;;;;;;4981786;28;20053;-66
2024/01/18 11:07:19;;;;;;;8.85;5.45;;;;;;;;;;4997738;28;20045;-66
2024/01/18 11:09:45;;;;;;;9.65;4.90;;;;;;;;;;4982526;28;20088;-66
2024/01/18 11:12:13;;;;;;;5.18;4.13;;;;;;;;;;4996666;28;20523;-67
2024/01/18 11:14:40;;;;;;;4.63;3.30;;;;;;;;;;4979957;28;20600;-66
2024/01/18 11:17:12;;;;;;;4.78;3.10;;;;;;;;;;4996680;28;20053;-67
2024/01/18 11:19:45;;;;;;;4.10;3.35;;;;;;;;;;4997988;28;20045;-67
2024/01/18 11:22:22;;;;;;;3.80;2.63;;;;;;;;;;4996293;28;20131;-67
2024/01/18 11:24:47;;;;;;;4.93;2.90;;;;;;;;;;4997727;28;20085;-66
2024/01/18 11:27:21;;;;;;;4.53;2.90;;;;;;;;;;4996690;28;20070;-67
2024/01/18 11:29:48;;;;;;;3.63;2.45;;;;;;;;;;4997478;28;20054;-66
2024/01/18 11:32:14;;;;;;;3.88;2.67;;;;;;;;;;4995912;28;20058;-66
2024/01/18 11:34:40;;;;;;;4.63;2.92;;;;;;;;;;4997245;28;20054;-66
2024/01/18 11:37:13;;;;;;;7.53;2.45;;;;;;;;;;4996700;28;20049;-67
2024/01/18 11:39:47;;;;;;;4.70;3.20;;;;;;;;;;4997467;28;20088;-66
2024/01/18 11:42:21;;;;;;;3.92;2.80;;;;;;;;;;4978745;28;20128;-66
2024/01/18 11:45:04;;;;;;;4.35;3.63;;;;;;;;;;4996352;28;20046;-66
2024/01/18 11:47:31;;;;;;;5.50;3.80;;;;;;;;;;4997413;28;20038;-67
2024/01/18 11:49:57;;;;;;;6.25;4.10;;;;;;;;;;4995606;28;20057;-67
2024/01/18 11:52:24;;;;;;;4.88;4.07;;;;;;;;;;4996394;28;20053;-67
2024/01/18 11:54:55;;;;;;;7.22;4.72;;;;;;;;;;4996056;28;20054;-66
2024/01/18 11:57:22;;;;;;;5.95;5.10;;;;;;;;;;4995821;28;20096;-65
2024/01/18 11:59:47;;;;;;;7.63;4.60;;;;;;;;;;4996529;28;20052;-66
2024/01/18 12:02:13;;;;;;;6.90;4.75;;;;;;;;;;4995670;28;20054;-65
2024/01/18 12:04:39;;;;;;;6.03;4.75;;;;;;;;;;4996745;28;20103;-66
2024/01/18 12:07:10;;;;;;;6.70;4.88;;;;;;;;;;4995459;28;20054;-67
2024/01/18 12:09:35;;;;;;;5.78;4.30;;;;;;;;;;4996815;28;20096;-66
2024/01/18 12:12:02;;;;;;;8.48;5.25;;;;;;;;;;4995607;28;20053;-65
2024/01/18 12:14:28;;;;;;;7.15;5.25;;;;;;;;;;4996315;28;20133;-67
2024/01/18 12:16:54;;;;;;;8.88;5.35;;;;;;;;;;4995250;28;20053;-65
2024/01/18 12:19:33;;;;;;;8.32;5.88;;;;;;;;;;4995968;28;20502;-66
2024/01/18 12:22:03;;;;;;;9.32;5.60;;;;;;;;;;4996167;28;20045;-65
2024/01/18 12:24:28;;;;;;;9.52;5.00;;;;;;;;;;4996513;28;20049;-66
2024/01/18 12:26:54;;;;;;;7.25;4.97;;;;;;;;;;4997048;28;20061;-67
2024/01/18 12:29:20;;;;;;;6.68;4.60;;;;;;;;;;4995850;28;20056;-67
2024/01/18 12:31:49;;;;;;;5.55;3.53;;;;;;;;;;4979001;28;20049;-68
2024/01/18 12:34:17;;;;;;;5.03;3.40;;;;;;;;;;4993418;28;20041;-68
2024/01/18 12:36:43;;;;;;;4.90;3.45;;;;;;;;;;4995552;28;20119;-67
2024/01/18 12:39:09;;;;;;;4.03;3.22;;;;;;;;;;4989032;28;20092;-68
2024/01/18 12:41:34;;;;;;;2.92;2.58;;;;;;;;;;4994003;28;20069;-65
2024/01/18 12:44:06;;;;;;;4.20;2.05;;;;;;;;;;4991238;28;20509;-67
2024/01/18 12:46:34;;;;;;;3.47;1.98;;;;;;;;;;4992575;28;20095;-68
2024/01/18 12:49:00;;;;;;;2.88;2.10;;;;;;;;;;4992813;28;20049;-67
2024/01/18 12:51:26;;;;;;;2.70;2.10;;;;;;;;;;4991141;28;20037;-67
2024/01/18 12:53:52;;;;;;;1.95;1.85;;;;;;;;;;4993677;28;20065;-65
2024/01/18 12:56:19;;;;;;;2.00;1.83;;;;;;;;;;4992400;28;20575;-66
2024/01/18 12:58:45;;;;;;;2.55;2.30;;;;;;;;;;4993026;28;20115;-66
2024/01/18 13:01:24;;;;;;;2.10;1.90;;;;;;;;;;4992208;28;20077;-66
2024/01/18 13:03:50;;;;;;;2.83;2.05;;;;;;;;;;4998567;28;20144;-66
2024/01/18 13:06:16;;;;;;;3.50;2.05;;;;;;;;;;4996786;28;20129;-65
2024/01/18 13:08:42;;;;;;;2.33;2.03;;;;;;;;;;4997705;28;20050;-65
2024/01/18 13:11:07;;;;;;;3.05;2.25;;;;;;;;;;4995425;28;20139;-66
2024/01/18 13:13:33;;;;;;;2.58;2.15;;;;;;;;;;4997488;28;20709;-66
2024/01/18 13:15:59;;;;;;;2.40;2.20;;;;;;;;;;4996532;28;20050;-67
2024/01/18 13:18:26;;;;;;;3.08;2.30;;;;;;;;;;4978959;28;20049;-67
2024/01/18 13:20:51;;;;;;;4.57;2.35;;;;;;;;;;4980189;28;20046;-68
2024/01/18 13:23:17;;;;;;;6.03;2.42;;;;;;;;;;4995842;28;20157;-66
2024/01/18 13:25:42;;;;;;;3.90;2.72;;;;;;;;;;4995606;28;20116;-69
2024/01/18 13:28:08;;;;;;;2.28;2.08;;;;;;;;;;4994607;28;20056;-67
2024/01/18 13:30:33;;;;;;;2.33;1.83;;;;;;;;;;4979805;28;20042;-66
2024/01/18 13:32:59;;;;;;;2.13;1.85;;;;;;;;;;4996980;28;20849;-67
2024/01/18 13:35:24;;;;;;;0.98;0.90;;;;;;;;;;4995751;28;20193;-68
2024/01/18 13:37:50;;;;;;;5.65;1.15;;;;;;;;;;4997107;28;20510;-66
2024/01/18 13:40:15;;;;;;;0.80;0.80;;;;;;;;;;4996503;28;20069;-67
2024/01/18 13:42:41;;;;;;;1.17;0.77;;;;;;;;;;4996527;28;20041;-66
2024/01/18 13:45:06;;;;;;;0.75;0.75;;;;;;;;;;4994886;28;20438;-67
2024/01/18 13:47:33;;;;;;;0.50;0.50;;;;;;;;;;4997446;28;20454;-66
2024/01/18 13:49:58;;;;;;;0.50;0.50;;;;;;;;;;4997566;28;20044;-68
2024/01/18 13:52:28;;;;;;;0.45;0.45;;;;;;;;;;4995093;28;20403;-66
2024/01/18 13:54:54;;;;;;;0.57;0.57;;;;;;;;;;4996350;28;20129;-66
2024/01/18 13:57:20;;;;;;;0.50;0.50;;;;;;;;;;4977551;28;20145;-65
2024/01/18 13:59:45;;;;;;;0.32;0.32;;;;;;;;;;4996179;28;20058;-66
2024/01/18 14:02:10;;;;;;;0.50;0.50;;;;;;;;;;4994758;28;20076;-66
2024/01/18 14:04:36;;;;;;;0.47;0.47;;;;;;;;;;4978934;28;20046;-67
2024/01/18 14:07:02;;;;;;;0.40;0.40;;;;;;;;;;4996702;28;20045;-66
2024/01/18 14:09:27;;;;;;;1.42;0.50;;;;;;;;;;4981172;28;20127;-67
2024/01/18 14:11:53;;;;;;;0.30;0.30;;;;;;;;;;4996655;28;20045;-67
2024/01/18 14:14:18;;;;;;;0.60;0.20;;;;;;;;;;4996758;28;20042;-68
2024/01/18 14:16:44;;;;;;;0.40;0.40;;;;;;;;;;4979336;28;20058;-67
2024/01/18 14:19:10;;;;;;;0.38;0.38;;;;;;;;;;4993408;28;20169;-68
2024/01/18 14:21:35;;;;;;;0.22;0.22;;;;;;;;;;4998120;28;20703;-68
2024/01/18 14:24:01;;;;;;;0.25;0.25;;;;;;;;;;4965324;28;20046;-67
2024/01/18 14:26:26;;;;;;;0.63;0.32;;;;;;;;;;4996385;28;20053;-68
2024/01/18 14:28:51;;;;;;;0.30;0.30;;;;;;;;;;4996171;28;20092;-68
2024/01/18 14:31:17;;;;;;;0.30;0.30;;;;;;;;;;4997260;28;20041;-68
2024/01/18 14:33:42;;;;;;;0.35;0.35;;;;;;;;;;4992223;28;20778;-67
2024/01/18 14:36:08;;;;;;;0.50;0.50;;;;;;;;;;4976967;28;20042;-67
2024/01/18 14:38:33;;;;;;;0.35;0.32;;;;;;;;;;4993535;28;20034;-67